• Join FlightAware (Why Join?)
  • Login
  • US Flag 
04:04AM EDT


 

Airport Tracker/Info


-or-


 

Live Flight TrackerFlight Track Log ✈ SWA728 ✈ 04-May-2013 ✈ KSJC - KSAN

Flight Track Log - Related Links

Times and Time Zones

All times are in EDT time to prevent confusion due to time zone crossing. See the SWA728 flight status page for this flight to view local times or setup timezone preferences in your user account.

Time Position Orientation Groundspeed Altitude Reporting Facility
EDT Latitude Longitude Course Direction KTS MPH feet Rate Location/Type
10:52AM 37.4000 -121.9833 133° Southeast 199 229 2,300  Level Northern Cal TRACON
10:53AM 37.4333 -121.9333 50° Northeast 229 264 4,900 1,260 Climbing Northern Cal TRACON
10:54AM 37.4000 -121.8667 122° Southeast 226 260 5,000 1,080 Climbing Northern Cal TRACON
10:56AM 37.3483 -121.8044 136° Southeast 232 267 7,400 2,100 Climbing Oakland Center
10:57AM 37.2914 -121.7453 140° Southeast 263 303 9,700 2,160 Climbing Oakland Center
10:58AM 36.9120 -121.4341 133° Southeast  Level Estimated
10:58AM 37.2258 -121.6694 137° Southeast 312 359 11,900  Level Oakland Center
10:59AM 37.1525 -121.5872 138° Southeast 350 403 14,300 2,580 Climbing Oakland Center
11:00AM 37.0678 -121.4922 138° Southeast 369 425 17,200 2,580 Climbing Oakland Center
11:01AM 36.9853 -121.4042 140° Southeast 388 447 19,600 2,220 Climbing Oakland Center
11:02AM 36.9025 -121.3128 139° Southeast 396 456 21,800 1,980 Climbing Oakland Center
11:03AM 36.8175 -121.2228 140° Southeast 412 474 23,700 1,800 Climbing Oakland Center
11:04AM 36.7297 -121.1317 140° Southeast 412 474 25,500 1,440 Climbing Oakland Center
11:05AM 36.6372 -121.0328 139° Southeast 431 496 26,700 1,500 Climbing Oakland Center
11:06AM 36.5250 -120.9114 139° Southeast 442 509 28,600 1,440 Climbing Oakland Center
11:07AM 36.4297 -120.8069 139° Southeast 453 521 29,700 1,260 Climbing Oakland Center
11:08AM 36.3339 -120.6997 138° Southeast 461 531 31,300 1,440 Climbing Oakland Center
11:09AM 36.2353 -120.5997 141° Southeast 457 526 32,700 1,260 Climbing Oakland Center
11:10AM 36.1386 -120.4964 139° Southeast 457 526 33,900 1,200 Climbing Oakland Center
11:11AM 36.0417 -120.3897 138° Southeast 464 534 35,200 1,080 Climbing Oakland Center
11:12AM 35.9469 -120.2947 141° Southeast 437 503 36,100 780 Climbing Oakland Center
11:13AM 35.8508 -120.1939 140° Southeast 448 516 36,900 420 Climbing Oakland Center
11:14AM 35.7578 -120.0961 140° Southeast 440 506 37,000  Climbing Oakland Center
11:15AM 35.6636 -119.9969 139° Southeast 439 505 37,000  Level Oakland Center
11:16AM 35.5600 -119.9039 144° Southeast 458 527 37,000 -60 Level Oakland Center
11:17AM 35.4572 -119.8161 145° Southeast 448 516 36,900  Descending Oakland Center
11:18AM 35.3553 -119.7269 144° Southeast 447 514 37,000  Climbing Oakland Center
11:19AM 35.2542 -119.6403 145° Southeast 443 510 37,000  Level Oakland Center
11:20AM 35.1528 -119.5539 145° Southeast 443 510 37,000  Level Oakland Center
11:21AM 35.0333 -119.4511 145° Southeast 440 506 37,000  Level Los Angeles Center
11:22AM 34.9342 -119.3664 145° Southeast 436 502 37,000  Level Los Angeles Center
11:23AM 34.8142 -119.2644 145° Southeast 438 504 37,000  Level Los Angeles Center
11:24AM 34.7139 -119.1817 146° Southeast 437 503 37,000  Level Los Angeles Center
11:25AM 34.6167 -119.1011 146° Southeast 439 505 37,000  Level Los Angeles Center
11:26AM 34.5156 -119.0139 145° Southeast 444 511 37,000  Level Los Angeles Center
11:27AM 34.4133 -118.9289 146° Southeast 447 514 37,000  Level Los Angeles Center
11:28AM 34.2967 -118.8203 142° Southeast 443 510 37,000  Level Los Angeles Center
11:29AM 34.2061 -118.7211 138° Southeast 441 507 37,000  Level Los Angeles Center
11:30AM 34.1156 -118.6253 139° Southeast 437 503 37,000 -360 Level Los Angeles Center
11:31AM 34.0242 -118.5283 139° Southeast 436 502 36,300 -900 Descending Los Angeles Center
11:32AM 33.9325 -118.4308 139° Southeast 438 504 35,200 -1,020 Descending Los Angeles Center
11:34AM 33.8419 -118.3156 133° Southeast 457 526 34,300 -960 Descending Los Angeles Center
11:35AM 33.7547 -118.2081 134° Southeast 453 521 33,300 -2,040 Descending Los Angeles Center
11:36AM 33.6686 -118.0931 132° Southeast 452 520 30,200 -3,120 Descending Los Angeles Center
11:37AM 33.5803 -117.9822 134° Southeast 459 528 27,000 -2,880 Descending Los Angeles Center
11:38AM 33.4919 -117.8717 134° Southeast 457 526 24,400 -2,700 Descending Los Angeles Center
11:38AM 33.4167 -117.7667 131° Southeast 430 495 22,200 -2,580 Descending Southern California TRACON
11:40AM 33.3167 -117.6500 136° Southeast 412 474 19,600 -2,340 Descending Southern California TRACON
11:41AM 33.2500 -117.5667 134° Southeast 395 455 17,400 -2,160 Descending Southern California TRACON
11:42AM 33.1667 -117.4833 140° Southeast 381 438 15,300 -2,040 Descending Southern California TRACON
11:42AM 33.0833 -117.4333 153° Southeast 354 407 13,600 -1,680 Descending Southern California TRACON
11:43AM 33.0700 -117.4158 132° Southeast 362 417 13,200 -1,920 Descending Los Angeles Center
11:43AM 33.0167 -117.3667 142° Southeast 341 392 11,700 -1,560 Descending Southern California TRACON
11:45AM 32.9333 -117.3000 146° Southeast 314 361 10,500 -1,140 Descending Southern California TRACON
11:46AM 32.8667 -117.2500 148° Southeast 287 330 9,400 -1,200 Descending Southern California TRACON
11:46AM 32.8400 -117.2303 148° Southeast 289 333 8,900 -1,440 Descending Los Angeles Center
11:47AM 32.8033 -117.1544 120° Southeast 278 320 7,500 -1,500 Descending Los Angeles Center
11:47AM 32.7833 -117.1000 114° Southeast 275 316 6,600 -1,320 Descending Southern California TRACON
11:48AM 32.7667 -117.0167 103° East 268 308 5,500 -840 Descending Southern California TRACON
11:49AM 32.7500 -116.9500 107° East 235 270 5,000 -660 Descending Southern California TRACON
11:50AM 32.7167 -116.9000 128° Southeast 211 243 4,200 -600 Descending Southern California TRACON
11:51AM 32.6833 -116.9500 232° Southwest 188 216 3,800 -480 Descending Southern California TRACON
11:52AM 32.6833 -117.0000 270° West 186 214 3,300 -720 Descending Southern California TRACON
11:53AM 32.7000 -117.0667 287° West 173 199 2,400 -960 Descending Southern California TRACON
11:55AM 32.7167 -117.1167 292° West 146 168 1,300 -780 Descending Southern California TRACON
11:55AM 32.7186 -117.1256 285° West 159 183 1,100 -660 Descending Los Angeles Center
11:56AM 32.7306 -117.1817 284° West 141 162 300 -780 Descending Los Angeles Center